Time;durP1;ratioP1;P1;durP2;ratioP2;P2;SDS_P1;SDS_P2;PMS_P1;PMS_P2;Temp;Humidity;BMP_temperature;BMP_pressure;BME280_temperature;BME280_humidity;BME280_pressure;Samples;Min_cycle;Max_cycle;Signal;HPM_P1;HPM_P2
2022/12/01 00:01:10;;;;;;;38.80;20.40;;;7.10;99.90;;;;;;5100758;28;20107;-66
2022/12/01 00:03:36;;;;;;;48.70;23.92;;;7.10;99.90;;;;;;5092734;27;20098;-66
2022/12/01 00:06:10;;;;;;;40.15;21.42;;;7.10;99.90;;;;;;5094827;28;20066;-65
2022/12/01 00:08:36;;;;;;;41.88;21.70;;;7.20;99.90;;;;;;5094737;28;20035;-65
2022/12/01 00:11:10;;;;;;;41.63;21.73;;;7.10;99.90;;;;;;5095740;28;20024;-65
2022/12/01 00:13:36;;;;;;;40.88;21.08;;;7.20;99.90;;;;;;5092072;28;20027;-64
2022/12/01 00:16:15;;;;;;;43.17;22.15;;;7.10;99.90;;;;;;5094425;28;20039;-65
2022/12/01 00:18:42;;;;;;;32.08;17.25;;;7.10;99.90;;;;;;5094581;28;20042;-65
2022/12/01 00:21:14;;;;;;;40.63;20.65;;;7.10;99.90;;;;;;5091783;28;20008;-65
2022/12/01 00:23:46;;;;;;;38.60;20.05;;;7.10;99.90;;;;;;5073180;28;20020;-65
2022/12/01 00:26:12;;;;;;;31.75;18.08;;;7.10;99.90;;;;;;5097203;27;20065;-65
2022/12/01 00:28:38;;;;;;;43.03;21.25;;;7.10;99.90;;;;;;5093416;28;20102;-65
2022/12/01 00:31:10;;;;;;;42.85;21.23;;;7.10;99.90;;;;;;5095427;28;20186;-65
2022/12/01 00:33:36;;;;;;;46.60;22.73;;;7.10;99.90;;;;;;5097163;28;20108;-65
2022/12/01 00:36:03;;;;;;;50.65;25.33;;;7.10;99.90;;;;;;5091337;28;20040;-65
2022/12/01 00:38:28;;;;;;;46.30;24.33;;;7.10;99.90;;;;;;5094890;28;20036;-65
2022/12/01 00:40:54;;;;;;;45.20;22.38;;;7.00;99.90;;;;;;5097344;28;20030;-65
2022/12/01 00:43:19;;;;;;;46.63;22.80;;;7.00;99.90;;;;;;5091402;28;20028;-65
2022/12/01 00:45:45;;;;;;;57.17;27.08;;;7.00;99.90;;;;;;5090938;28;20537;-65
2022/12/01 00:48:10;;;;;;;50.72;23.73;;;7.00;99.90;;;;;;5095911;28;20027;-65
2022/12/01 00:50:36;;;;;;;47.22;23.90;;;7.00;99.90;;;;;;5096340;28;20024;-65
2022/12/01 00:53:01;;;;;;;48.25;23.90;;;7.00;99.90;;;;;;5095131;28;20599;-65
2022/12/01 00:55:27;;;;;;;47.88;23.38;;;7.00;99.90;;;;;;5090898;28;20107;-65
2022/12/01 00:57:52;;;;;;;58.38;28.88;;;7.00;99.90;;;;;;5090832;28;20020;-65
2022/12/01 01:00:18;;;;;;;53.03;26.75;;;7.00;99.90;;;;;;5072343;28;20077;-64
2022/12/01 01:02:43;;;;;;;56.10;25.60;;;7.00;99.90;;;;;;5091557;28;20095;-65
2022/12/01 01:05:09;;;;;;;47.08;24.02;;;7.00;99.90;;;;;;5092769;28;20028;-65
2022/12/01 01:07:34;;;;;;;48.25;23.77;;;6.90;99.90;;;;;;5093856;27;20036;-65
2022/12/01 01:10:00;;;;;;;43.63;23.52;;;6.90;99.90;;;;;;5090629;28;20551;-65
2022/12/01 01:12:27;;;;;;;44.75;23.08;;;6.90;99.90;;;;;;5090765;28;20020;-65
2022/12/01 01:14:52;;;;;;;46.67;22.15;;;6.90;99.90;;;;;;5090451;28;20054;-65
2022/12/01 01:17:18;;;;;;;47.53;23.67;;;6.90;99.90;;;;;;5095928;28;20376;-64
2022/12/01 01:19:44;;;;;;;42.40;22.10;;;6.90;99.90;;;;;;5090774;28;20020;-64
2022/12/01 01:22:10;;;;;;;44.63;22.65;;;6.90;99.90;;;;;;5093299;28;20024;-65
2022/12/01 01:24:35;;;;;;;44.67;23.13;;;6.90;99.90;;;;;;5093960;28;20027;-65
2022/12/01 01:27:01;;;;;;;47.08;24.10;;;6.90;99.90;;;;;;5113859;27;20021;-66
2022/12/01 01:29:26;;;;;;;44.38;23.35;;;6.90;99.90;;;;;;5122458;27;20052;-66
2022/12/01 01:31:52;;;;;;;45.47;23.95;;;6.90;99.90;;;;;;5097620;27;20489;-64
2022/12/01 01:34:17;;;;;;;45.30;22.52;;;6.90;99.90;;;;;;5090157;28;20020;-65
2022/12/01 01:36:43;;;;;;;47.42;24.80;;;6.90;99.90;;;;;;5092685;28;20043;-65
2022/12/01 01:39:09;;;;;;;46.95;24.25;;;6.90;99.90;;;;;;5090530;28;20095;-65
2022/12/01 01:41:34;;;;;;;45.85;23.95;;;6.90;99.90;;;;;;5090204;28;20073;-65
2022/12/01 01:44:04;;;;;;;40.83;22.55;;;6.90;99.90;;;;;;5095434;28;20415;-65
2022/12/01 01:46:32;;;;;;;44.65;23.70;;;6.90;99.90;;;;;;5074142;27;20431;-65
2022/12/01 01:48:59;;;;;;;43.17;22.95;;;6.90;99.90;;;;;;5091549;28;20020;-65
2022/12/01 01:51:39;;;;;;;40.58;22.50;;;6.90;99.90;;;;;;5091162;28;20035;-65
2022/12/01 01:54:15;;;;;;;39.97;22.48;;;6.90;99.90;;;;;;5098096;28;20023;-65
2022/12/01 01:56:42;;;;;;;48.28;26.25;;;6.90;99.90;;;;;;5090411;28;20028;-65
2022/12/01 01:59:11;;;;;;;44.33;24.55;;;6.90;99.90;;;;;;5074476;28;20024;-65
2022/12/01 02:01:37;;;;;;;42.15;23.65;;;6.90;99.90;;;;;;5089280;28;20409;-65
2022/12/01 02:04:03;;;;;;;43.53;23.25;;;6.90;99.90;;;;;;5072311;28;20019;-65
2022/12/01 02:06:28;;;;;;;43.35;23.75;;;6.90;99.90;;;;;;5092576;28;20457;-65
2022/12/01 02:08:54;;;;;;;45.67;23.85;;;6.90;99.90;;;;;;5093782;28;20063;-65
2022/12/01 02:11:31;;;;;;;38.90;22.67;;;6.90;99.90;;;;;;5094725;28;20458;-65
2022/12/01 02:14:15;;;;;;;36.97;19.48;;;6.90;99.90;;;;;;5097741;27;20054;-65
2022/12/01 02:17:21;;;;;;;37.28;20.38;;;6.90;99.90;;;;;;5089453;28;20023;-66
2022/12/01 02:19:47;;;;;;;37.78;20.25;;;6.90;99.90;;;;;;5097814;28;20035;-65
2022/12/01 02:22:18;;;;;;;34.45;18.80;;;6.90;99.90;;;;;;5092309;28;20024;-65
2022/12/01 02:25:00;;;;;;;35.97;21.02;;;6.90;99.90;;;;;;5092165;28;20051;-65
2022/12/01 02:27:53;;;;;;;37.45;20.58;;;6.90;99.90;;;;;;5093382;28;20481;-65
2022/12/01 02:30:53;;;;;;;42.95;22.63;;;6.90;99.90;;;;;;5092315;28;20020;-65
2022/12/01 02:33:42;;;;;;;41.53;22.80;;;6.90;99.90;;;;;;5094504;28;20089;-65
2022/12/01 02:36:13;;;;;;;37.20;20.27;;;6.90;99.90;;;;;;5094776;27;20058;-65
2022/12/01 02:38:55;;;;;;;34.67;20.13;;;6.90;99.90;;;;;;5088920;28;20027;-65
2022/12/01 02:41:29;;;;;;;43.45;23.25;;;6.90;99.90;;;;;;5094713;28;20012;-65
2022/12/01 02:44:09;;;;;;;44.80;24.58;;;6.90;99.90;;;;;;5090645;28;20490;-65
2022/12/01 02:46:49;;;;;;;41.58;23.73;;;6.90;99.90;;;;;;5091984;28;20078;-66
2022/12/01 02:49:23;;;;;;;42.10;23.77;;;6.90;99.90;;;;;;5090894;28;20035;-65
2022/12/01 02:51:51;;;;;;;46.00;23.35;;;6.80;99.90;;;;;;5091789;28;20035;-65
2022/12/01 02:54:17;;;;;;;39.60;22.35;;;6.90;99.90;;;;;;5088733;28;20043;-65
2022/12/01 02:56:44;;;;;;;42.78;24.00;;;6.80;99.90;;;;;;5075901;28;20020;-65
2022/12/01 02:59:11;;;;;;;37.03;20.45;;;6.80;99.90;;;;;;5090872;28;20050;-65
2022/12/01 03:01:57;;;;;;;35.85;20.70;;;6.80;99.90;;;;;;5097259;28;20485;-65
2022/12/01 03:04:45;;;;;;;35.63;20.40;;;6.80;99.90;;;;;;5074223;28;20031;-65
2022/12/01 03:07:35;;;;;;;33.15;19.98;;;6.90;99.90;;;;;;5090922;28;20074;-66
2022/12/01 03:10:07;;;;;;;33.78;19.23;;;6.90;99.90;;;;;;5088695;28;20499;-65
2022/12/01 03:12:59;;;;;;;33.17;18.33;;;6.90;99.90;;;;;;5070519;28;20533;-65
2022/12/01 03:15:46;;;;;;;33.13;17.98;;;6.90;99.90;;;;;;5091108;28;20028;-66
2022/12/01 03:18:39;;;;;;;34.05;18.00;;;6.90;99.90;;;;;;5091076;28;20020;-65
2022/12/01 03:21:24;;;;;;;30.13;17.27;;;7.00;99.90;;;;;;5091466;28;20093;-65
2022/12/01 03:24:14;;;;;;;31.75;18.58;;;6.90;99.90;;;;;;5091692;28;20085;-65
2022/12/01 03:26:43;;;;;;;;;;;6.90;99.90;;;;;;5091879;28;20476;-65
2022/12/01 03:29:13;;;;;;;33.28;18.65;;;6.90;99.90;;;;;;5090516;28;19915;-65
2022/12/01 03:31:51;;;;;;;44.90;23.00;;;6.90;99.90;;;;;;5095180;28;20028;-65
2022/12/01 03:34:22;;;;;;;40.65;22.67;;;6.90;99.90;;;;;;5088404;28;21492;-67
2022/12/01 03:36:56;;;;;;;40.03;21.67;;;6.90;99.90;;;;;;5091224;28;20481;-65
2022/12/01 03:39:27;;;;;;;44.22;24.55;;;6.90;99.90;;;;;;5088141;28;20130;-65
2022/12/01 03:42:16;;;;;;;44.90;24.35;;;6.90;99.90;;;;;;5105120;28;20053;-65
2022/12/01 03:44:49;;;;;;;44.78;24.10;;;6.90;99.90;;;;;;5106151;28;20028;-65
2022/12/01 03:47:21;;;;;;;52.20;26.25;;;6.80;99.90;;;;;;5089376;28;20097;-64
2022/12/01 03:49:49;;;;;;;42.88;23.90;;;6.80;99.90;;;;;;5090487;28;20034;-65
2022/12/01 03:52:34;;;;;;;43.25;22.48;;;6.80;99.90;;;;;;5088360;28;20036;-65
2022/12/01 03:55:14;;;;;;;54.60;26.13;;;6.80;99.90;;;;;;5091198;28;20020;-65
2022/12/01 03:57:55;;;;;;;43.83;23.35;;;6.80;99.90;;;;;;5088785;28;20111;-65
2022/12/01 04:00:21;;;;;;;45.13;24.40;;;6.80;99.90;;;;;;5090978;28;20016;-64
2022/12/01 04:02:47;;;;;;;45.50;23.65;;;6.80;99.90;;;;;;5090774;28;20016;-65
2022/12/01 04:05:13;;;;;;;41.72;22.95;;;6.80;99.90;;;;;;5094498;28;20027;-64
2022/12/01 04:07:39;;;;;;;41.25;21.70;;;6.80;99.90;;;;;;5094071;28;20031;-65
2022/12/01 04:10:06;;;;;;;47.05;23.45;;;6.80;99.90;;;;;;5090597;28;20024;-65
2022/12/01 04:12:32;;;;;;;47.45;24.60;;;6.80;99.90;;;;;;5076309;28;20035;-65
2022/12/01 04:15:11;;;;;;;48.15;25.77;;;6.80;99.90;;;;;;5097548;28;20028;-65
2022/12/01 04:17:37;;;;;;;47.53;23.60;;;6.80;99.90;;;;;;5091823;28;20020;-65
2022/12/01 04:20:05;;;;;;;49.45;26.80;;;6.80;99.90;;;;;;5100174;28;20489;-65
2022/12/01 04:22:31;;;;;;;55.15;27.02;;;6.80;99.90;;;;;;5096096;28;20131;-65
2022/12/01 04:24:56;;;;;;;44.17;23.75;;;6.80;99.90;;;;;;5094791;28;20119;-66
2022/12/01 04:27:22;;;;;;;46.15;24.58;;;6.80;99.90;;;;;;5091594;28;20028;-65
2022/12/01 04:29:47;;;;;;;48.97;26.15;;;6.80;99.90;;;;;;5098686;28;20032;-64
2022/12/01 04:32:13;;;;;;;44.50;22.92;;;6.80;99.90;;;;;;5092926;28;20051;-64
2022/12/01 04:34:39;;;;;;;52.90;26.77;;;6.80;99.90;;;;;;5094161;28;20077;-65
2022/12/01 04:37:06;;;;;;;46.67;23.35;;;6.80;99.90;;;;;;5094217;28;20503;-65
2022/12/01 04:39:31;;;;;;;48.22;23.60;;;6.80;99.90;;;;;;5074928;28;20108;-65
2022/12/01 04:41:57;;;;;;;46.10;23.58;;;6.80;99.90;;;;;;5092443;28;20111;-65
2022/12/01 04:44:22;;;;;;;44.15;22.45;;;6.80;99.90;;;;;;5094389;28;20134;-65
2022/12/01 04:46:50;;;;;;;42.78;22.88;;;6.80;99.90;;;;;;5091864;28;20032;-65
2022/12/01 04:49:16;;;;;;;40.08;21.05;;;6.80;99.90;;;;;;5094849;28;20034;-65
2022/12/01 04:51:41;;;;;;;47.67;24.42;;;6.80;99.90;;;;;;5091615;28;20451;-65
2022/12/01 04:54:07;;;;;;;50.97;25.52;;;6.80;99.90;;;;;;5098304;28;20081;-65
2022/12/01 04:56:32;;;;;;;46.90;23.17;;;6.80;99.90;;;;;;5095227;28;20028;-65
2022/12/01 04:58:58;;;;;;;46.50;25.17;;;6.80;99.90;;;;;;5072861;28;20065;-65
2022/12/01 05:01:24;;;;;;;41.15;22.25;;;6.80;99.90;;;;;;5091167;28;20015;-65
2022/12/01 05:03:50;;;;;;;50.45;26.48;;;6.80;99.90;;;;;;5096646;28;20027;-65
2022/12/01 05:06:19;;;;;;;48.58;24.90;;;6.80;99.90;;;;;;5090733;28;20136;-66
2022/12/01 05:08:44;;;;;;;41.17;22.40;;;6.80;99.90;;;;;;5096512;28;20030;-65
2022/12/01 05:11:11;;;;;;;38.85;20.60;;;6.80;99.90;;;;;;5090857;28;20024;-65
2022/12/01 05:13:39;;;;;;;39.65;21.17;;;6.80;99.90;;;;;;5096186;28;20016;-65
2022/12/01 05:16:07;;;;;;;43.35;23.33;;;6.80;99.90;;;;;;5090579;28;20047;-65
2022/12/01 05:18:33;;;;;;;39.30;22.50;;;6.80;99.90;;;;;;5093458;28;20024;-65
2022/12/01 05:20:58;;;;;;;44.25;23.30;;;6.80;99.90;;;;;;5089014;28;20078;-66
2022/12/01 05:23:25;;;;;;;39.95;22.08;;;6.80;99.90;;;;;;5090708;28;20096;-66
2022/12/01 05:25:51;;;;;;;37.83;20.75;;;6.80;99.90;;;;;;5094609;28;20428;-65
2022/12/01 05:28:17;;;;;;;40.83;22.92;;;6.80;99.90;;;;;;5094155;28;20500;-65
2022/12/01 05:30:43;;;;;;;39.17;22.40;;;6.80;99.90;;;;;;5090117;28;20077;-65
2022/12/01 05:33:08;;;;;;;38.38;21.02;;;6.80;99.90;;;;;;5090314;28;20097;-65
2022/12/01 05:35:34;;;;;;;37.75;20.88;;;6.80;99.90;;;;;;5083297;28;20032;-65
2022/12/01 05:37:59;;;;;;;39.05;21.05;;;6.80;99.90;;;;;;5093062;28;20024;-65
2022/12/01 05:40:25;;;;;;;38.97;21.17;;;6.80;99.90;;;;;;5093559;28;20056;-65
2022/12/01 05:42:51;;;;;;;43.15;22.60;;;6.90;99.90;;;;;;5100339;28;20020;-65
2022/12/01 05:45:17;;;;;;;37.05;20.25;;;6.90;99.90;;;;;;5077742;28;20111;-65
2022/12/01 05:47:42;;;;;;;40.13;21.70;;;6.90;99.90;;;;;;5092572;28;20055;-65
2022/12/01 05:50:08;;;;;;;36.70;20.30;;;6.90;99.90;;;;;;5092277;28;20072;-65
2022/12/01 05:52:34;;;;;;;33.65;18.92;;;6.90;99.90;;;;;;5090932;28;20039;-65
2022/12/01 05:55:01;;;;;;;36.70;21.20;;;6.90;99.90;;;;;;5089855;28;20035;-65
2022/12/01 05:57:26;;;;;;;38.08;20.77;;;6.90;99.90;;;;;;5098847;28;20016;-65
2022/12/01 05:59:52;;;;;;;34.88;19.33;;;6.90;99.90;;;;;;5102674;28;20039;-65
2022/12/01 06:02:17;;;;;;;40.28;21.08;;;6.90;99.90;;;;;;5071836;28;20043;-65
2022/12/01 06:04:43;;;;;;;33.80;19.02;;;6.90;99.90;;;;;;5093638;28;20380;-65
2022/12/01 06:07:09;;;;;;;32.78;19.05;;;6.90;99.90;;;;;;5095222;28;20020;-65
2022/12/01 06:09:34;;;;;;;29.98;18.17;;;6.90;99.90;;;;;;5092609;28;20072;-65
2022/12/01 06:12:00;;;;;;;30.73;16.80;;;6.90;99.90;;;;;;5095739;28;20053;-65
2022/12/01 06:14:25;;;;;;;30.67;17.58;;;6.90;99.90;;;;;;5090575;28;20024;-65
2022/12/01 06:16:51;;;;;;;28.02;17.45;;;6.90;99.90;;;;;;5091177;28;20476;-65
2022/12/01 06:19:16;;;;;;;28.88;16.67;;;6.90;99.90;;;;;;5089468;28;20030;-65
2022/12/01 06:21:42;;;;;;;34.63;18.58;;;6.90;99.90;;;;;;5091790;28;20477;-65
2022/12/01 06:24:08;;;;;;;33.25;18.63;;;6.90;99.90;;;;;;5092249;28;20023;-65
2022/12/01 06:26:34;;;;;;;35.60;21.25;;;6.90;99.90;;;;;;5089538;28;20028;-65
2022/12/01 06:28:59;;;;;;;36.78;21.52;;;6.90;99.90;;;;;;5091949;28;20077;-65
2022/12/01 06:31:25;;;;;;;36.85;20.67;;;6.80;99.90;;;;;;5091863;28;20032;-65
2022/12/01 06:33:50;;;;;;;45.63;23.83;;;6.90;99.90;;;;;;5091512;28;20152;-64
2022/12/01 06:36:16;;;;;;;40.42;21.88;;;6.90;99.90;;;;;;5092142;28;20032;-65
2022/12/01 06:38:41;;;;;;;40.05;22.90;;;6.80;99.90;;;;;;5091537;28;20030;-65
2022/12/01 06:41:07;;;;;;;43.72;25.13;;;6.80;99.90;;;;;;5094089;28;20060;-64
2022/12/01 06:43:36;;;;;;;40.38;22.48;;;6.80;99.90;;;;;;5089133;28;20103;-65
2022/12/01 06:46:03;;;;;;;40.58;23.05;;;6.80;99.90;;;;;;5076403;28;20059;-65
2022/12/01 06:48:30;;;;;;;41.75;23.98;;;6.80;99.90;;;;;;5089744;28;20044;-65
2022/12/01 06:51:00;;;;;;;43.83;23.75;;;6.80;99.90;;;;;;5092894;28;20034;-65
2022/12/01 06:53:27;;;;;;;44.22;24.00;;;6.80;99.90;;;;;;5112545;28;20510;-65
2022/12/01 06:55:53;;;;;;;41.83;22.52;;;6.70;99.90;;;;;;5100654;28;20032;-65
2022/12/01 06:58:19;;;;;;;41.50;22.45;;;6.70;99.90;;;;;;5106434;27;20028;-65
2022/12/01 07:00:44;;;;;;;44.10;23.75;;;6.60;99.90;;;;;;5104598;28;20066;-65
2022/12/01 07:03:10;;;;;;;41.55;22.67;;;6.60;99.90;;;;;;5101117;28;20038;-65
2022/12/01 07:05:35;;;;;;;36.83;21.08;;;6.60;99.90;;;;;;5105241;28;20513;-65
2022/12/01 07:08:02;;;;;;;36.22;19.45;;;6.60;99.90;;;;;;5110892;28;20072;-65
2022/12/01 07:10:27;;;;;;;42.47;23.30;;;6.70;99.90;;;;;;5082590;28;20024;-65
2022/12/01 07:12:55;;;;;;;45.53;23.70;;;6.60;99.90;;;;;;5092187;28;20035;-65
2022/12/01 07:15:22;;;;;;;38.17;22.55;;;6.60;99.90;;;;;;5092199;28;20028;-65
2022/12/01 07:17:47;;;;;;;39.50;23.17;;;6.60;99.90;;;;;;5101925;28;20438;-65
2022/12/01 07:20:13;;;;;;;43.67;23.25;;;6.50;99.90;;;;;;5111263;28;20062;-65
2022/12/01 07:22:38;;;;;;;35.53;21.20;;;6.50;99.90;;;;;;5096625;28;20039;-65
2022/12/01 07:25:05;;;;;;;36.97;21.77;;;6.50;99.90;;;;;;5107763;28;20070;-66
2022/12/01 07:27:31;;;;;;;33.45;19.85;;;6.50;99.90;;;;;;5089651;28;20012;-65
2022/12/01 07:29:56;;;;;;;37.97;19.73;;;6.50;99.90;;;;;;5090573;28;20028;-65
2022/12/01 07:32:22;;;;;;;40.53;22.88;;;6.50;99.90;;;;;;5107404;28;20044;-66
2022/12/01 07:34:48;;;;;;;45.00;25.17;;;6.40;99.90;;;;;;5089968;28;20019;-65
2022/12/01 07:37:13;;;;;;;41.15;23.15;;;6.40;99.90;;;;;;5107690;28;20500;-65
2022/12/01 07:39:39;;;;;;;36.90;20.63;;;6.40;99.90;;;;;;5108613;28;20376;-65
2022/12/01 07:42:04;;;;;;;36.47;20.83;;;6.40;99.90;;;;;;5107545;28;20034;-65
2022/12/01 07:44:30;;;;;;;37.30;21.80;;;6.30;99.90;;;;;;5111678;28;20102;-65
2022/12/01 07:46:55;;;;;;;37.08;20.48;;;6.30;99.90;;;;;;5111187;28;20040;-65
2022/12/01 07:49:21;;;;;;;37.60;20.05;;;6.30;99.90;;;;;;5111283;28;20019;-65
2022/12/01 07:51:46;;;;;;;35.63;19.63;;;6.30;99.90;;;;;;5102545;28;20089;-65
2022/12/01 07:54:13;;;;;;;39.28;20.48;;;6.40;99.90;;;;;;5109043;28;20481;-66
2022/12/01 07:56:39;;;;;;;41.40;21.65;;;6.40;99.90;;;;;;5109362;28;20054;-65
2022/12/01 07:59:05;;;;;;;41.13;22.40;;;6.40;99.90;;;;;;5095953;28;20513;-66
2022/12/01 08:01:30;;;;;;;37.30;19.67;;;6.40;99.90;;;;;;5077837;28;20032;-65
2022/12/01 08:03:57;;;;;;;32.90;17.48;;;6.50;99.90;;;;;;5099790;28;20059;-65
2022/12/01 08:06:23;;;;;;;37.97;19.80;;;6.50;99.90;;;;;;5096062;28;20016;-66
2022/12/01 08:08:49;;;;;;;42.20;21.02;;;6.50;99.90;;;;;;5077851;28;20473;-65
2022/12/01 08:11:19;;;;;;;39.80;22.80;;;6.50;99.90;;;;;;5078596;28;20111;-65
2022/12/01 08:13:45;;;;;;;48.63;25.02;;;6.50;99.90;;;;;;5114150;28;20027;-65
2022/12/01 08:16:12;;;;;;;45.85;24.88;;;6.50;99.90;;;;;;5099382;28;20036;-65
2022/12/01 08:18:41;;;;;;;39.92;23.08;;;6.50;99.90;;;;;;5105581;28;20035;-65
2022/12/01 08:21:08;;;;;;;43.50;23.13;;;6.60;99.90;;;;;;5114848;28;20011;-65
2022/12/01 08:23:34;;;;;;;42.05;22.48;;;6.60;99.90;;;;;;5112644;28;20208;-65
2022/12/01 08:26:05;;;;;;;45.08;24.35;;;6.60;99.90;;;;;;5090066;28;20136;-65
2022/12/01 08:28:33;;;;;;;38.90;21.92;;;6.60;99.90;;;;;;5086680;28;20494;-65
2022/12/01 08:31:09;;;;;;;34.83;19.58;;;6.60;99.90;;;;;;5112414;28;20110;-65
2022/12/01 08:33:35;;;;;;;33.25;18.88;;;6.60;99.90;;;;;;5111208;28;20055;-65
2022/12/01 08:36:02;;;;;;;39.60;21.55;;;6.70;99.90;;;;;;5111439;28;20028;-65
2022/12/01 08:38:28;;;;;;;38.50;20.85;;;6.70;99.90;;;;;;5109539;28;20027;-65
2022/12/01 08:40:55;;;;;;;44.13;24.55;;;6.70;99.90;;;;;;5106697;28;20024;-65
2022/12/01 08:43:21;;;;;;;40.30;22.55;;;6.70;99.90;;;;;;5097528;28;20103;-65
2022/12/01 08:45:47;;;;;;;35.05;20.10;;;6.80;99.90;;;;;;5094760;28;20051;-65
2022/12/01 08:48:13;;;;;;;39.58;21.20;;;6.80;99.90;;;;;;5095250;28;20028;-65
2022/12/01 08:50:38;;;;;;;45.10;24.42;;;6.90;99.90;;;;;;5112331;28;20026;-65
2022/12/01 08:53:04;;;;;;;40.40;22.92;;;6.90;99.90;;;;;;5103997;28;20035;-65
2022/12/01 08:55:29;;;;;;;43.42;23.90;;;6.90;99.90;;;;;;5094318;28;20031;-65
2022/12/01 08:57:55;;;;;;;42.58;23.77;;;7.00;99.90;;;;;;5094971;28;20504;-65
2022/12/01 09:00:20;;;;;;;45.60;24.15;;;7.00;99.90;;;;;;5094551;28;20020;-65
2022/12/01 09:02:46;;;;;;;53.30;27.90;;;7.00;99.90;;;;;;5106225;28;20035;-65
2022/12/01 09:05:11;;;;;;;52.92;27.25;;;7.00;99.90;;;;;;5101142;28;20020;-65
2022/12/01 09:07:37;;;;;;;47.90;24.45;;;7.00;99.90;;;;;;5084927;28;20024;-65
2022/12/01 09:10:03;;;;;;;43.65;22.40;;;7.10;99.90;;;;;;5075763;28;20367;-65
2022/12/01 09:12:29;;;;;;;45.40;24.20;;;7.10;99.90;;;;;;5094432;28;20020;-65
2022/12/01 09:14:54;;;;;;;49.03;25.02;;;7.20;99.90;;;;;;5099807;28;20431;-65
2022/12/01 09:17:20;;;;;;;45.70;25.85;;;7.20;99.90;;;;;;5102832;28;20028;-65
2022/12/01 09:19:45;;;;;;;47.60;25.15;;;7.30;99.90;;;;;;5094473;28;20024;-65
2022/12/01 09:22:11;;;;;;;52.90;26.38;;;7.40;99.90;;;;;;5078789;28;20104;-65
2022/12/01 09:24:37;;;;;;;47.83;26.63;;;7.50;99.90;;;;;;5122283;27;20027;-65
2022/12/01 09:27:03;;;;;;;51.58;26.50;;;7.50;99.90;;;;;;5110224;28;20031;-65
2022/12/01 09:29:29;;;;;;;45.85;24.42;;;7.60;99.90;;;;;;5108641;28;20023;-65
2022/12/01 09:31:56;;;;;;;42.72;22.80;;;7.60;99.90;;;;;;5112579;28;20032;-65
2022/12/01 09:34:22;;;;;;;50.03;25.83;;;7.70;99.90;;;;;;5108177;28;20044;-65
2022/12/01 09:36:48;;;;;;;52.58;27.33;;;7.70;99.90;;;;;;5111445;27;20046;-65
2022/12/01 09:39:16;;;;;;;47.00;25.25;;;7.70;99.90;;;;;;5081814;28;20500;-65
2022/12/01 09:41:44;;;;;;;48.08;26.70;;;7.80;99.90;;;;;;5093759;28;20024;-64
2022/12/01 09:44:13;;;;;;;48.80;25.67;;;7.70;99.90;;;;;;5100634;28;20019;-65
2022/12/01 09:46:44;;;;;;;47.45;24.67;;;7.80;99.90;;;;;;5111559;28;20473;-64
2022/12/01 09:49:16;;;;;;;53.58;26.08;;;7.80;99.90;;;;;;5113503;28;20477;-65
2022/12/01 09:51:42;;;;;;;47.97;24.02;;;7.80;99.90;;;;;;5113836;28;20019;-65
2022/12/01 09:54:12;;;;;;;45.85;25.10;;;7.80;99.90;;;;;;5112099;28;20035;-65
2022/12/01 09:56:48;;;;;;;50.55;26.45;;;7.80;99.90;;;;;;5110633;28;20035;-65
2022/12/01 09:59:22;;;;;;;55.03;29.58;;;7.90;99.90;;;;;;5097613;28;20051;-64
2022/12/01 10:01:53;;;;;;;54.65;28.33;;;7.90;99.90;;;;;;5091864;28;20058;-65
2022/12/01 10:04:24;;;;;;;61.90;30.67;;;7.80;99.90;;;;;;5110342;28;20049;-65
2022/12/01 10:07:20;;;;;;;61.40;30.73;;;7.80;99.90;;;;;;5106718;28;20099;-65
2022/12/01 10:09:59;;;;;;;54.00;28.30;;;7.80;99.90;;;;;;5109095;28;20504;-64
2022/12/01 10:12:29;;;;;;;49.92;25.52;;;7.80;99.90;;;;;;5109207;28;20024;-65
2022/12/01 10:15:14;;;;;;;56.42;28.50;;;7.80;99.90;;;;;;5111213;28;20059;-65
2022/12/01 10:18:06;;;;;;;49.63;27.10;;;7.90;99.90;;;;;;5091162;28;20107;-65
2022/12/01 10:20:55;;;;;;;46.33;24.83;;;7.90;99.90;;;;;;5093240;28;20469;-65
2022/12/01 10:23:26;;;;;;;51.23;23.50;;;8.00;99.90;;;;;;5100387;28;20376;-65
2022/12/01 10:25:56;;;;;;;52.60;27.13;;;8.00;99.90;;;;;;5107778;28;20111;-65
2022/12/01 10:29:06;;;;;;;63.95;32.88;;;8.00;99.90;;;;;;5093229;28;20024;-65
2022/12/01 10:31:51;;;;;;;61.95;32.00;;;8.10;99.90;;;;;;5101010;28;20511;-65
2022/12/01 10:34:31;;;;;;;57.13;28.17;;;8.10;99.90;;;;;;5092707;28;20089;-65
2022/12/01 10:36:57;;;;;;;54.92;28.90;;;8.10;99.90;;;;;;5105944;28;20062;-65
2022/12/01 10:39:27;;;;;;;58.53;28.80;;;8.20;99.90;;;;;;5107077;28;20055;-65
2022/12/01 10:42:06;;;;;;;54.63;28.23;;;8.20;99.90;;;;;;5105193;28;20039;-65
2022/12/01 10:44:33;;;;;;;50.80;26.35;;;8.20;99.90;;;;;;5100847;28;20068;-65
2022/12/01 10:46:59;;;;;;;53.25;28.92;;;8.30;99.90;;;;;;5096400;28;20020;-65
2022/12/01 10:49:39;;;;;;;52.55;26.73;;;8.40;99.90;;;;;;5101301;28;20027;-65
2022/12/01 10:52:05;;;;;;;43.25;23.33;;;8.50;99.90;;;;;;5099352;28;20032;-65
2022/12/01 10:54:39;;;;;;;45.17;24.33;;;8.50;99.90;;;;;;5084695;28;20039;-65
2022/12/01 10:57:13;;;;;;;44.60;24.90;;;8.60;99.90;;;;;;5092815;28;20350;-65
2022/12/01 10:59:55;;;;;;;41.53;22.02;;;8.70;99.90;;;;;;5092874;28;20035;-65
2022/12/01 11:02:24;;;;;;;42.58;23.83;;;9.00;99.90;;;;;;5112875;27;20024;-65
2022/12/01 11:05:05;;;;;;;40.63;22.98;;;9.10;99.90;;;;;;5108145;28;20021;-65
2022/12/01 11:07:42;;;;;;;42.47;23.10;;;9.20;99.90;;;;;;5107207;28;20048;-65
2022/12/01 11:10:22;;;;;;;51.72;28.38;;;9.30;99.90;;;;;;5109313;28;20022;-65
2022/12/01 11:13:06;;;;;;;48.35;25.90;;;9.50;99.90;;;;;;5107920;28;20496;-65
2022/12/01 11:15:38;;;;;;;42.80;24.90;;;9.80;99.90;;;;;;5086415;28;20035;-65
2022/12/01 11:18:19;;;;;;;47.55;26.42;;;9.90;99.90;;;;;;5111610;28;20016;-65
2022/12/01 11:20:45;;;;;;;45.05;24.80;;;9.90;99.90;;;;;;5102534;28;20054;-65
2022/12/01 11:23:19;;;;;;;51.80;27.83;;;9.80;99.90;;;;;;5112986;28;20027;-65
2022/12/01 11:26:13;;;;;;;42.42;24.63;;;9.70;99.90;;;;;;5101276;28;20503;-65
2022/12/01 11:28:58;;;;;;;50.08;28.17;;;9.70;99.90;;;;;;5088856;28;20058;-65
2022/12/01 11:31:39;;;;;;;54.80;29.10;;;9.70;99.90;;;;;;5106139;28;20099;-65
2022/12/01 11:34:13;;;;;;;45.40;25.48;;;9.60;99.90;;;;;;5095949;28;20093;-65
2022/12/01 11:36:44;;;;;;;42.72;23.45;;;9.60;99.90;;;;;;5096442;28;20544;-65
2022/12/01 11:39:26;;;;;;;42.55;24.70;;;9.60;99.90;;;;;;5108130;28;20531;-65
2022/12/01 11:42:01;;;;;;;45.53;26.90;;;9.50;99.90;;;;;;5089471;28;20434;-65
2022/12/01 11:44:27;;;;;;;47.00;26.90;;;9.40;99.90;;;;;;5096112;28;20489;-65
2022/12/01 11:46:53;;;;;;;45.53;26.35;;;9.30;99.90;;;;;;5107772;28;20036;-65
2022/12/01 11:49:28;;;;;;;41.30;24.85;;;9.30;99.90;;;;;;5112014;28;20077;-65
2022/12/01 11:51:53;;;;;;;40.00;23.02;;;9.30;99.90;;;;;;5101244;28;20097;-65
2022/12/01 11:54:24;;;;;;;35.70;21.65;;;9.40;99.90;;;;;;5095943;28;20513;-65
2022/12/01 11:56:51;;;;;;;47.10;26.55;;;9.40;99.90;;;;;;5095771;28;20031;-65
2022/12/01 11:59:25;;;;;;;49.95;28.45;;;9.40;99.90;;;;;;5095908;28;20047;-65
2022/12/01 12:02:15;;;;;;;44.00;26.33;;;9.40;99.90;;;;;;5095711;28;20024;-65
2022/12/01 12:04:50;;;;;;;49.13;28.17;;;9.40;99.90;;;;;;5108813;28;20027;-65
2022/12/01 12:07:21;;;;;;;49.40;27.88;;;9.30;99.90;;;;;;5111800;28;20023;-65
2022/12/01 12:09:56;;;;;;;40.92;24.80;;;9.30;99.90;;;;;;5109912;28;20054;-65
2022/12/01 12:12:42;;;;;;;45.90;27.35;;;9.30;99.90;;;;;;5104214;28;20449;-65
2022/12/01 12:15:24;;;;;;;41.85;24.50;;;9.20;99.90;;;;;;5096002;28;20024;-65
2022/12/01 12:18:12;;;;;;;40.80;24.52;;;9.10;99.90;;;;;;5096139;28;20009;-65
2022/12/01 12:20:47;;;;;;;35.95;21.27;;;9.10;99.90;;;;;;5112120;27;20023;-65
2022/12/01 12:23:41;;;;;;;36.47;22.02;;;9.10;99.90;;;;;;5096279;28;20012;-65
2022/12/01 12:26:25;;;;;;;29.27;18.13;;;9.20;99.90;;;;;;5095187;28;20020;-65
2022/12/01 12:29:22;;;;;;;37.28;22.63;;;9.30;99.90;;;;;;5077421;28;20051;-65
2022/12/01 12:32:04;;;;;;;35.05;21.80;;;9.30;99.90;;;;;;5095456;28;20055;-65
2022/12/01 12:34:37;;;;;;;34.50;20.77;;;9.30;99.90;;;;;;5094957;28;20501;-65
2022/12/01 12:37:19;;;;;;;38.00;21.35;;;9.30;99.90;;;;;;5094930;28;20373;-65
2022/12/01 12:39:52;;;;;;;32.05;19.02;;;9.40;99.90;;;;;;5096987;28;20046;-65
2022/12/01 12:42:31;;;;;;;30.52;19.08;;;9.40;99.90;;;;;;5112534;28;20042;-64
2022/12/01 12:45:12;;;;;;;34.03;21.30;;;9.50;99.90;;;;;;5107906;28;20022;-65
2022/12/01 12:48:26;;;;;;;33.88;21.15;;;9.50;99.90;;;;;;5103983;28;20043;-64
2022/12/01 12:51:30;;;;;;;32.58;20.00;;;9.40;99.90;;;;;;5108218;28;20051;-65
2022/12/01 12:54:17;;;;;;;39.90;23.63;;;9.40;99.90;;;;;;5094638;28;20020;-65
2022/12/01 12:56:46;;;;;;;35.17;21.48;;;9.50;99.90;;;;;;5096099;28;20036;-65